createdAt,value
2023-02-02T00:01:27.908Z,100996.00
2023-02-02T00:03:55.961Z,100997.00
2023-02-02T00:06:25.557Z,100991.63
2023-02-02T00:08:54.678Z,100988.91
2023-02-02T00:11:22.421Z,100990.44
2023-02-02T00:13:50.217Z,100987.22
2023-02-02T00:16:40.359Z,100988.81
2023-02-02T00:19:09.825Z,100991.63
2023-02-02T00:21:38.238Z,100988.81
2023-02-02T00:24:08.807Z,100990.09
2023-02-02T00:26:37.411Z,100994.88
2023-02-02T00:29:06.456Z,100993.50
2023-02-02T00:31:34.537Z,100998.88
2023-02-02T00:34:02.351Z,100997.28
2023-02-02T00:36:30.082Z,100998.47
2023-02-02T00:38:57.971Z,100994.53
2023-02-02T00:41:27.069Z,101001.13
2023-02-02T00:44:08.753Z,100994.69
2023-02-02T00:46:40.593Z,101004.97
2023-02-02T00:49:08.776Z,100995.75
2023-02-02T00:51:37.001Z,100994.69
2023-02-02T00:54:05.952Z,100992.66
2023-02-02T00:56:35.137Z,100999.84
2023-02-02T00:59:03.082Z,101007.53
2023-02-02T01:01:30.885Z,101011.47
2023-02-02T01:03:58.973Z,101006.84
2023-02-02T01:06:26.886Z,101006.59
2023-02-02T01:08:54.778Z,100999.56
2023-02-02T01:11:22.744Z,101005.41
2023-02-02T01:13:52.041Z,100997.69
2023-02-02T01:16:22.442Z,100994.19
2023-02-02T01:18:50.461Z,101007.09
2023-02-02T01:21:18.340Z,101007.38
2023-02-02T01:23:46.333Z,101015.31
2023-02-02T01:26:15.829Z,101011.47
2023-02-02T01:28:43.881Z,101003.69
2023-02-02T01:31:14.513Z,101006.41
2023-02-02T01:33:43.706Z,101003.94
2023-02-02T01:36:13.627Z,101016.59
2023-02-02T01:38:42.385Z,101007.78
2023-02-02T01:41:14.238Z,101010.34
2023-02-02T01:43:57.397Z,101009.66
2023-02-02T01:46:27.597Z,101017.63
2023-02-02T01:49:02.144Z,101007.72
2023-02-02T01:51:36.014Z,101005.81
2023-02-02T01:54:07.217Z,100997.59
2023-02-02T01:56:38.026Z,101002.41
2023-02-02T01:59:07.175Z,101009.41
2023-02-02T02:01:36.278Z,101013.84
2023-02-02T02:04:04.204Z,101015.47
2023-02-02T02:06:32.150Z,101007.03
2023-02-02T02:09:03.496Z,101012.66
2023-02-02T02:11:32.266Z,101012.25
2023-02-02T02:14:21.568Z,101008.97
2023-02-02T02:17:23.059Z,101005.06
2023-02-02T02:20:47.663Z,101007.09
2023-02-02T02:24:18.742Z,101017.88
2023-02-02T02:27:02.189Z,101025.72
2023-02-02T02:29:53.381Z,101010.34
2023-02-02T02:32:32.347Z,101016.31
2023-02-02T02:35:06.411Z,101019.22
2023-02-02T02:37:40.707Z,101019.91
2023-02-02T02:40:14.799Z,101003.94
2023-02-02T02:42:47.079Z,101022.56
2023-02-02T02:45:15.949Z,101008.81
2023-02-02T02:47:45.560Z,101024.47
2023-02-02T02:50:13.360Z,101012.81
2023-02-02T02:52:41.956Z,101015.13
2023-02-02T02:55:12.470Z,101013.59
2023-02-02T02:57:51.544Z,101020.53
2023-02-02T03:00:29.910Z,101020.78
2023-02-02T03:03:06.591Z,101006.84
2023-02-02T03:05:41.786Z,101023.84
2023-02-02T03:08:17.139Z,101024.03
2023-02-02T03:10:47.341Z,101026.41
2023-02-02T03:13:16.804Z,101025.06
2023-02-02T03:15:45.966Z,101024.97
2023-02-02T03:18:18.102Z,101017.19
2023-02-02T03:20:47.137Z,101020.84
2023-02-02T03:23:15.318Z,101022.56
2023-02-02T03:25:43.459Z,101030.44
2023-02-02T03:28:11.475Z,101028.03
2023-02-02T03:30:41.200Z,101027.59
2023-02-02T03:33:09.300Z,101023.50
2023-02-02T03:35:38.379Z,101021.19
2023-02-02T03:38:06.153Z,101015.81
2023-02-02T03:40:34.517Z,101008.97
2023-02-02T03:43:02.961Z,101019.59
2023-02-02T03:45:32.162Z,101016.44
2023-02-02T03:47:59.934Z,101022.31
2023-02-02T03:50:27.651Z,101030.38
2023-02-02T03:52:56.786Z,101024.03
2023-02-02T03:55:24.639Z,101003.88
2023-02-02T03:57:52.704Z,101016.59
2023-02-02T04:00:21.380Z,101019.59
2023-02-02T04:02:49.149Z,101028.38
2023-02-02T04:05:17.057Z,101033.25
2023-02-02T04:07:44.702Z,101035.22
2023-02-02T04:10:14.050Z,101043.84
2023-02-02T04:12:41.803Z,101047.34
2023-02-02T04:15:10.222Z,101036.59
2023-02-02T04:17:38.111Z,101037.63
2023-02-02T04:20:07.167Z,101045.81
2023-02-02T04:22:35.205Z,101051.88
2023-02-02T04:25:03.026Z,101039.66
2023-02-02T04:27:33.934Z,101043.84
2023-02-02T04:30:01.750Z,101048.22
2023-02-02T04:32:29.536Z,101054.44
2023-02-02T04:34:57.282Z,101056.41
2023-02-02T04:37:25.041Z,101055.41
2023-02-02T04:39:55.293Z,101062.25
2023-02-02T04:42:23.050Z,101069.22
2023-02-02T04:44:52.166Z,101067.69
2023-02-02T04:47:19.881Z,101070.44
2023-02-02T04:49:47.594Z,101076.00
2023-02-02T04:52:15.359Z,101067.28
2023-02-02T04:54:43.098Z,101071.47
2023-02-02T04:57:10.803Z,101067.13
2023-02-02T04:59:41.014Z,101071.31
2023-02-02T05:02:11.288Z,101067.97
2023-02-02T05:04:39.117Z,101075.84
2023-02-02T05:07:06.830Z,101080.38
2023-02-02T05:09:34.584Z,101084.78
2023-02-02T05:12:02.317Z,101078.28
2023-02-02T05:14:29.999Z,101081.03
2023-02-02T05:16:57.721Z,101082.91
2023-02-02T05:19:27.003Z,101082.91
2023-02-02T05:21:54.830Z,101079.34
2023-02-02T05:24:22.541Z,101087.78
2023-02-02T05:26:50.318Z,101092.66
2023-02-02T05:29:18.043Z,101083.00
2023-02-02T05:31:45.894Z,101082.06
2023-02-02T05:34:13.706Z,101092.84
2023-02-02T05:36:42.781Z,101102.56
2023-02-02T05:39:10.640Z,101104.53
2023-02-02T05:41:38.423Z,101096.34
2023-02-02T05:44:06.237Z,101108.47
2023-02-02T05:46:33.982Z,101117.19
2023-02-02T05:49:05.001Z,101108.91
2023-02-02T05:51:35.338Z,101112.66
2023-02-02T05:54:04.539Z,101123.53
2023-02-02T05:56:32.299Z,101123.34
2023-02-02T05:59:00.164Z,101121.88
2023-02-02T06:01:28.329Z,101118.47
2023-02-02T06:03:56.158Z,101117.78
2023-02-02T06:06:23.938Z,101116.44
2023-02-02T06:08:51.657Z,101122.31
2023-02-02T06:11:20.783Z,101122.66
2023-02-02T06:13:48.490Z,101124.63
2023-02-02T06:16:16.244Z,101124.72
2023-02-02T06:18:43.994Z,101125.88
2023-02-02T06:21:12.611Z,101129.25
2023-02-02T06:23:45.591Z,101136.63
2023-02-02T06:26:13.445Z,101134.00
2023-02-02T06:28:43.161Z,101141.88
2023-02-02T06:31:12.690Z,101147.00
2023-02-02T06:33:40.587Z,101146.31
2023-02-02T06:36:08.979Z,101143.50
2023-02-02T06:38:36.702Z,101139.28
2023-02-02T06:41:04.653Z,101146.47
2023-02-02T06:43:32.565Z,101147.41
2023-02-02T06:46:01.741Z,101144.59
2023-02-02T06:48:29.494Z,101131.03
2023-02-02T06:50:59.380Z,101142.56
2023-02-02T06:53:27.686Z,101138.88
2023-02-02T06:55:55.638Z,101134.97
2023-02-02T06:58:23.552Z,101124.44
2023-02-02T07:00:51.497Z,101136.06
2023-02-02T07:03:21.868Z,101131.03
2023-02-02T07:05:49.861Z,101139.75
2023-02-02T07:08:17.804Z,101128.38
2023-02-02T07:11:11.285Z,101127.78
2023-02-02T07:13:33.332Z,101130.41
2023-02-02T07:16:01.226Z,101129.59
2023-02-02T07:18:30.425Z,101131.47
2023-02-02T07:21:00.346Z,101128.97
2023-02-02T07:23:28.323Z,101136.84
2023-02-02T07:26:03.195Z,101134.19
2023-02-02T07:28:31.429Z,101137.78
2023-02-02T07:30:59.407Z,101147.97
2023-02-02T07:33:27.283Z,101146.50
2023-02-02T07:35:56.447Z,101147.88
2023-02-02T07:38:24.159Z,101165.91
2023-02-02T07:40:51.891Z,101162.31
2023-02-02T07:43:20.552Z,101173.53
2023-02-02T07:45:48.314Z,101186.50
2023-02-02T07:48:16.074Z,101182.94
2023-02-02T07:50:43.880Z,101181.03
2023-02-02T07:53:13.168Z,101181.97
2023-02-02T07:55:41.054Z,101174.19
2023-02-02T07:58:10.280Z,101177.78
2023-02-02T08:00:38.211Z,101176.94
2023-02-02T08:03:06.143Z,101181.19
2023-02-02T08:05:35.025Z,101173.94
2023-02-02T08:08:02.990Z,101177.38
2023-02-02T08:10:32.177Z,101189.94
2023-02-02T08:13:00.134Z,101200.03
2023-02-02T08:15:28.147Z,101210.63
2023-02-02T08:17:56.192Z,101209.88
2023-02-02T08:20:24.050Z,101203.53
2023-02-02T08:22:52.041Z,101188.66
2023-02-02T08:25:19.899Z,101198.50
2023-02-02T08:27:49.229Z,101192.09
2023-02-02T08:30:17.306Z,101197.06
2023-02-02T08:32:45.187Z,101198.94
2023-02-02T08:35:13.213Z,101215.28
2023-02-02T08:37:41.048Z,101216.19
2023-02-02T08:40:10.592Z,101214.44
2023-02-02T08:42:38.782Z,101227.84
2023-02-02T08:46:01.351Z,101222.44
2023-02-02T08:48:10.722Z,101227.34
2023-02-02T08:50:39.420Z,101223.50
2023-02-02T08:53:07.303Z,101214.16
2023-02-02T08:55:35.305Z,101205.81
2023-02-02T08:58:03.232Z,101208.28
2023-02-02T09:00:32.540Z,101211.97
2023-02-02T09:03:00.428Z,101215.88
2023-02-02T09:05:28.433Z,101223.25
2023-02-02T09:07:56.308Z,101224.53
2023-02-02T09:10:24.594Z,101224.53
2023-02-02T09:12:52.463Z,101226.09
2023-02-02T09:15:20.289Z,101232.25
2023-02-02T09:17:49.585Z,101217.28
2023-02-02T09:20:20.239Z,101210.25
2023-02-02T09:22:48.427Z,101211.72
2023-02-02T09:25:16.501Z,101202.97
2023-02-02T09:27:44.385Z,101210.72
2023-02-02T09:30:13.664Z,101211.28
2023-02-02T09:32:41.473Z,101213.53
2023-02-02T09:35:10.997Z,101213.78
2023-02-02T09:37:38.863Z,101211.22
2023-02-02T09:40:07.815Z,101216.53
2023-02-02T09:43:00.301Z,101219.94
2023-02-02T09:45:39.625Z,101230.22
2023-02-02T09:48:21.951Z,101233.91
2023-02-02T09:50:56.377Z,101225.94
2023-02-02T09:53:52.965Z,101223.88
2023-02-02T09:56:26.855Z,101244.09
2023-02-02T09:58:57.727Z,101238.78
2023-02-02T10:01:31.567Z,101228.25
2023-02-02T10:04:05.584Z,101236.34
2023-02-02T10:06:38.606Z,101244.25
2023-02-02T10:09:20.498Z,101238.84
2023-02-02T10:11:54.830Z,101246.13
2023-02-02T10:14:27.921Z,101253.94
2023-02-02T10:16:59.474Z,101254.25
2023-02-02T10:19:30.744Z,101253.16
2023-02-02T10:22:06.577Z,101257.56
2023-02-02T10:24:36.247Z,101271.81
2023-02-02T10:27:07.170Z,101271.09
2023-02-02T10:29:49.162Z,101280.78
2023-02-02T10:32:24.884Z,101277.09
2023-02-02T10:35:14.310Z,101265.81
2023-02-02T10:37:56.556Z,101269.84
2023-02-02T10:40:36.661Z,101268.88
2023-02-02T10:43:41.399Z,101278.81
2023-02-02T10:46:15.439Z,101281.03
2023-02-02T10:48:47.060Z,101264.19
2023-02-02T10:51:22.921Z,101260.94
2023-02-02T10:53:54.493Z,101258.63
2023-02-02T10:56:25.707Z,101247.16
2023-02-02T10:59:02.274Z,101250.50
2023-02-02T11:01:30.632Z,101251.09
2023-02-02T11:04:16.252Z,101247.75
2023-02-02T11:06:53.146Z,101251.25
2023-02-02T11:09:25.105Z,101254.94
2023-02-02T11:11:55.842Z,101245.84
2023-02-02T11:14:45.230Z,101245.59
2023-02-02T11:17:20.561Z,101229.41
2023-02-02T11:19:50.149Z,101240.78
2023-02-02T11:22:32.403Z,101230.81
2023-02-02T11:25:03.678Z,101236.00
2023-02-02T11:27:36.162Z,101215.94
2023-02-02T11:30:22.380Z,101227.59
2023-02-02T11:32:50.968Z,101224.97
2023-02-02T11:35:21.973Z,101234.06
2023-02-02T11:38:09.422Z,101239.38
2023-02-02T11:40:41.325Z,101244.34
2023-02-02T11:43:18.928Z,101238.38
2023-02-02T11:45:50.304Z,101245.38
2023-02-02T11:48:20.866Z,101234.47
2023-02-02T11:50:51.702Z,101244.44
2023-02-02T11:53:32.045Z,101233.41
2023-02-02T11:56:07.419Z,101241.19
2023-02-02T11:58:45.618Z,101243.84
2023-02-02T12:01:27.649Z,101232.63
2023-02-02T12:03:57.147Z,101230.66
2023-02-02T12:06:27.433Z,101214.63
2023-02-02T12:09:01.428Z,101218.34
2023-02-02T12:11:54.313Z,101209.41
2023-02-02T12:14:32.495Z,101220.56
2023-02-02T12:17:13.425Z,101223.78
2023-02-02T12:20:03.090Z,101214.13
2023-02-02T12:22:49.631Z,101217.94
2023-02-02T12:25:49.637Z,101226.19
2023-02-02T12:28:30.721Z,101216.72
2023-02-02T12:31:10.311Z,101223.47
2023-02-02T12:33:46.777Z,101219.19
2023-02-02T12:36:27.995Z,101213.59
2023-02-02T12:39:22.290Z,101230.78
2023-02-02T12:42:14.998Z,101225.00
2023-02-02T12:44:54.972Z,101224.03
2023-02-02T12:47:29.349Z,101212.94
2023-02-02T12:50:23.573Z,101216.19
2023-02-02T12:53:09.144Z,101216.81
2023-02-02T12:55:45.208Z,101204.88
2023-02-02T12:58:25.867Z,101217.13
2023-02-02T13:01:31.399Z,101216.44
2023-02-02T13:04:17.535Z,101206.59
2023-02-02T13:07:19.188Z,101212.94
2023-02-02T13:09:52.447Z,101216.19
2023-02-02T13:12:24.970Z,101201.38
2023-02-02T13:14:57.620Z,101212.09
2023-02-02T13:17:31.119Z,101217.59
2023-02-02T13:20:04.461Z,101215.59
2023-02-02T13:22:38.713Z,101222.25
2023-02-02T13:25:11.141Z,101222.56
2023-02-02T13:27:41.353Z,101222.25
2023-02-02T13:30:18.779Z,101222.91
2023-02-02T13:32:49.167Z,101222.91
2023-02-02T13:35:20.262Z,101235.25
2023-02-02T13:37:54.465Z,101227.66
2023-02-02T13:40:29.263Z,101215.81
2023-02-02T13:43:03.787Z,101228.50
2023-02-02T13:45:48.776Z,101222.81
2023-02-02T13:48:29.514Z,101232.13
2023-02-02T13:51:17.620Z,101223.88
2023-02-02T13:54:22.081Z,101224.72
2023-02-02T13:56:58.388Z,101213.69
2023-02-02T13:59:36.571Z,101223.66
2023-02-02T14:02:07.508Z,101234.19
2023-02-02T14:04:37.711Z,101227.91
2023-02-02T14:07:07.314Z,101230.41
2023-02-02T14:09:38.501Z,101229.03
2023-02-02T14:12:09.841Z,101231.34
2023-02-02T14:14:40.314Z,101248.31
2023-02-02T14:17:09.305Z,101253.47
2023-02-02T14:19:51.989Z,101251.66
2023-02-02T14:22:39.774Z,101251.94
2023-02-02T14:25:41.592Z,101250.81
2023-02-02T14:28:11.972Z,101267.00
2023-02-02T14:30:41.178Z,101260.28
2023-02-02T14:33:28.471Z,101263.22
2023-02-02T14:36:05.367Z,101244.06
2023-02-02T14:39:01.961Z,101260.03
2023-02-02T14:42:00.909Z,101260.88
2023-02-02T14:44:30.687Z,101268.00
2023-02-02T14:46:59.114Z,101276.84
2023-02-02T14:49:35.647Z,101282.06
2023-02-02T14:52:05.573Z,101272.78
2023-02-02T14:54:37.147Z,101282.13
2023-02-02T14:57:20.882Z,101299.59
2023-02-02T14:59:49.517Z,101305.66
2023-02-02T15:02:21.962Z,101311.56
2023-02-02T15:04:50.586Z,101312.50
2023-02-02T15:11:29.709Z,101323.63
2023-02-02T15:14:11.161Z,101341.97
2023-02-02T15:16:41.180Z,101344.81
2023-02-02T15:19:18.635Z,101353.06
2023-02-02T15:21:50.467Z,101358.81
2023-02-02T15:24:23.481Z,101359.84
2023-02-02T15:26:54.499Z,101371.16
2023-02-02T15:29:34.578Z,101359.84
2023-02-02T15:32:04.376Z,101370.53
2023-02-02T15:34:40.214Z,101370.91
2023-02-02T15:37:13.911Z,101368.25
2023-02-02T15:39:44.191Z,101369.00
2023-02-02T15:42:35.260Z,101374.31
2023-02-02T15:45:05.013Z,101378.19
2023-02-02T15:47:36.761Z,101378.94
2023-02-02T15:50:17.764Z,101383.34
2023-02-02T15:52:47.966Z,101388.31
2023-02-02T15:55:22.942Z,101382.78
2023-02-02T15:57:54.073Z,101391.72
2023-02-02T16:00:31.752Z,101395.38
2023-02-02T16:03:04.867Z,101401.16
2023-02-02T16:05:47.593Z,101413.06
2023-02-02T16:08:19.933Z,101421.09
2023-02-02T16:10:50.075Z,101433.00
2023-02-02T16:13:27.155Z,101438.22
2023-02-02T16:16:01.153Z,101453.31
2023-02-02T16:18:29.695Z,101466.00
2023-02-02T16:21:00.546Z,101454.66
2023-02-02T16:23:31.831Z,101466.28
2023-02-02T16:26:02.424Z,101471.03
2023-02-02T16:28:30.474Z,101477.97
2023-02-02T16:31:02.481Z,101476.84
2023-02-02T16:33:36.074Z,101471.72
2023-02-02T16:36:12.384Z,101476.63
2023-02-02T16:38:40.525Z,101486.47
2023-02-02T16:41:10.642Z,101490.09
2023-02-02T16:43:40.333Z,101485.84
2023-02-02T16:46:12.300Z,101484.41
2023-02-02T16:48:44.078Z,101487.63
2023-02-02T16:51:27.065Z,101484.31
2023-02-02T16:54:12.337Z,101484.50
2023-02-02T16:56:42.032Z,101484.91
2023-02-02T16:59:18.186Z,101487.16
2023-02-02T17:01:50.222Z,101499.81
2023-02-02T17:04:22.545Z,101497.47
2023-02-02T17:06:53.236Z,101502.78
2023-02-02T17:09:35.568Z,101515.53
2023-02-02T17:12:14.239Z,101512.69
2023-02-02T17:14:53.557Z,101507.63
2023-02-02T17:17:22.776Z,101500.00
2023-02-02T17:19:50.536Z,101511.38
2023-02-02T17:22:21.872Z,101519.44
2023-02-02T17:24:51.783Z,101523.94
2023-02-02T17:27:27.331Z,101516.91
2023-02-02T17:29:55.703Z,101523.94
2023-02-02T17:32:25.025Z,101537.47
2023-02-02T17:34:52.908Z,101526.84
2023-02-02T17:37:20.743Z,101534.19
2023-02-02T17:39:50.742Z,101538.78
2023-02-02T17:42:23.924Z,101538.09
2023-02-02T17:44:51.684Z,101554.00
2023-02-02T17:47:19.492Z,101557.50
2023-02-02T17:49:48.893Z,101553.06
2023-02-02T17:52:16.758Z,101565.59
2023-02-02T17:54:44.473Z,101547.22
2023-02-02T17:57:12.209Z,101544.16
2023-02-02T17:59:39.889Z,101536.75
2023-02-02T18:02:07.720Z,101526.44
2023-02-02T18:04:36.647Z,101529.88
2023-02-02T18:07:07.548Z,101534.03
2023-02-02T18:09:35.411Z,101532.59
2023-02-02T18:12:03.203Z,101522.09
2023-02-02T18:14:31.063Z,101518.34
2023-02-02T18:16:58.828Z,101522.31
2023-02-02T18:19:26.633Z,101524.41
2023-02-02T18:21:54.946Z,101530.72
2023-02-02T18:24:24.140Z,101523.63
2023-02-02T18:26:51.997Z,101529.53
2023-02-02T18:29:19.819Z,101534.94
2023-02-02T18:31:47.675Z,101535.09
2023-02-02T18:34:15.621Z,101544.19
2023-02-02T18:36:43.386Z,101537.03
2023-02-02T18:39:11.129Z,101545.16
2023-02-02T18:41:40.381Z,101546.84
2023-02-02T18:44:08.309Z,101544.84
2023-02-02T18:46:36.100Z,101538.69
2023-02-02T18:49:03.972Z,101541.53
2023-02-02T18:51:32.345Z,101541.78
2023-02-02T18:54:00.798Z,101540.03
2023-02-02T18:56:29.624Z,101537.34
2023-02-02T18:58:59.425Z,101548.34
2023-02-02T19:01:27.355Z,101541.66
2023-02-02T19:03:57.108Z,101554.81
2023-02-02T19:06:42.798Z,101550.38
2023-02-02T19:09:10.932Z,101555.69
2023-02-02T19:11:40.552Z,101554.03
2023-02-02T19:14:15.306Z,101548.81
2023-02-02T19:16:43.879Z,101559.56
2023-02-02T19:19:22.231Z,101572.03
2023-02-02T19:21:57.490Z,101573.88
2023-02-02T19:24:27.136Z,101576.69
2023-02-02T19:26:55.384Z,101578.63
2023-02-02T19:29:26.827Z,101594.44
2023-02-02T19:32:00.655Z,101588.34
2023-02-02T19:34:28.520Z,101585.81
2023-02-02T19:36:56.439Z,101585.81
2023-02-02T19:39:30.722Z,101595.53
2023-02-02T19:42:01.242Z,101593.53
2023-02-02T19:44:34.065Z,101594.44
2023-02-02T19:47:02.867Z,101580.28
2023-02-02T19:49:34.140Z,101588.72
2023-02-02T19:52:03.771Z,101580.41
2023-02-02T19:54:34.965Z,101582.25
2023-02-02T19:57:08.292Z,101582.41
2023-02-02T19:59:37.602Z,101573.66
2023-02-02T20:02:27.009Z,101576.47
2023-02-02T20:05:02.573Z,101572.09
2023-02-02T20:07:31.036Z,101573.53
2023-02-02T20:10:11.443Z,101570.81
2023-02-02T20:12:39.439Z,101574.59
2023-02-02T20:15:25.516Z,101580.81
2023-02-02T20:17:54.558Z,101592.28
2023-02-02T20:20:26.430Z,101583.47
2023-02-02T20:22:55.299Z,101585.94
2023-02-02T20:25:23.030Z,101584.19
2023-02-02T20:27:51.723Z,101592.28
2023-02-02T20:30:25.180Z,101588.94
2023-02-02T20:32:58.048Z,101594.81
2023-02-02T20:35:34.459Z,101600.41
2023-02-02T20:38:02.494Z,101595.94
2023-02-02T20:40:31.655Z,101604.69
2023-02-02T20:42:59.532Z,101592.22
2023-02-02T20:45:28.773Z,101595.72
2023-02-02T20:47:56.611Z,101597.44
2023-02-02T20:50:25.334Z,101598.53
2023-02-02T20:52:54.106Z,101603.91
2023-02-02T20:55:21.920Z,101602.88
2023-02-02T20:57:49.662Z,101604.91
2023-02-02T21:00:21.369Z,101602.88
2023-02-02T21:02:52.304Z,101600.25
2023-02-02T21:05:20.090Z,101609.19
2023-02-02T21:07:48.693Z,101610.34
2023-02-02T21:10:16.626Z,101607.22
2023-02-02T21:12:45.819Z,101603.59
2023-02-02T21:15:15.105Z,101601.97
2023-02-02T21:17:44.089Z,101602.75
2023-02-02T21:20:15.461Z,101597.69
2023-02-02T21:22:43.389Z,101598.66
2023-02-02T21:25:11.646Z,101600.41
2023-02-02T21:27:41.196Z,101610.72
2023-02-02T21:30:10.587Z,101619.69
2023-02-02T21:32:38.422Z,101618.88
2023-02-02T21:35:07.377Z,101615.22
2023-02-02T21:37:37.773Z,101607.41
2023-02-02T21:40:13.783Z,101610.06
2023-02-02T21:42:46.216Z,101606.31
2023-02-02T21:45:29.516Z,101603.78
2023-02-02T21:47:59.357Z,101618.59
2023-02-02T21:50:30.073Z,101607.28
2023-02-02T21:53:18.501Z,101611.50
2023-02-02T21:55:47.995Z,101604.56
2023-02-02T21:58:21.933Z,101608.97
2023-02-02T22:00:50.858Z,101595.72
2023-02-02T22:03:32.967Z,101613.44
2023-02-02T22:06:14.938Z,101606.25
2023-02-02T22:08:44.193Z,101607.94
2023-02-02T22:11:22.989Z,101594.94
2023-02-02T22:13:51.001Z,101607.41
2023-02-02T22:16:21.485Z,101596.13
2023-02-02T22:18:49.353Z,101608.13
2023-02-02T22:21:20.660Z,101603.00
2023-02-02T22:23:50.393Z,101600.41
2023-02-02T22:26:29.325Z,101599.97
2023-02-02T22:28:57.604Z,101594.16
2023-02-02T22:31:25.930Z,101592.50
2023-02-02T22:33:53.923Z,101582.56
2023-02-02T22:36:21.783Z,101580.13
2023-02-02T22:38:50.988Z,101578.25
2023-02-02T22:41:18.922Z,101563.59
2023-02-02T22:43:46.793Z,101566.97
2023-02-02T22:46:14.660Z,101563.63
2023-02-02T22:48:42.721Z,101580.75
2023-02-02T22:51:10.583Z,101579.25
2023-02-02T22:53:38.487Z,101583.78
2023-02-02T22:56:08.284Z,101582.75
2023-02-02T22:58:36.102Z,101586.06
2023-02-02T23:01:04.979Z,101596.31
2023-02-02T23:03:32.880Z,101597.19
2023-02-02T23:06:00.715Z,101602.56
2023-02-02T23:08:28.665Z,101612.22
2023-02-02T23:10:56.538Z,101612.09
2023-02-02T23:13:25.751Z,101611.13
2023-02-02T23:15:53.663Z,101611.44
2023-02-02T23:18:22.117Z,101617.81
2023-02-02T23:20:50.532Z,101619.47
2023-02-02T23:23:18.371Z,101623.16
2023-02-02T23:25:46.169Z,101619.72
2023-02-02T23:28:14.289Z,101620.31
2023-02-02T23:30:43.802Z,101625.75
2023-02-02T23:33:11.705Z,101627.69
2023-02-02T23:35:39.563Z,101628.63
2023-02-02T23:38:07.393Z,101628.75
2023-02-02T23:40:35.241Z,101631.28
2023-02-02T23:43:03.047Z,101622.31
2023-02-02T23:45:30.982Z,101621.47
2023-02-02T23:48:00.197Z,101624.06
2023-02-02T23:50:28.784Z,101616.09
2023-02-02T23:52:56.880Z,101604.56
2023-02-02T23:55:24.649Z,101603.47
2023-02-02T23:57:52.508Z,101601.72
